Tupper Lake, NY

11:38 PM EST on December 28, 2014 (GMT -0500)
Massena International-Richards | Change Station
CLOSE
Current Station
Airport
Location: Massena,
Elevation: 213 ft
Nearby Weather Stations

Elev 213 ft 44.94 °N, 74.85 °W | Updated 45 minutes ago

Partly Cloudy
Partly Cloudy
32 °F
Feels Like 24 °F
N
9
Wind Variable Wind from WSW

Today
High -- | Low -- °F
--% Chance of Precip.
Yesterday
High -- | Low -- °F
Precip. -- in
7:32 AM 4:26 PM
First Quarter, 55% visible
Pressure 30.02 in
Visibility 10.0 miles
Clouds Few 5500 ft
Overcast 7500 ft
Windchill 24 °F
Dew Point 22 °F
Humidity 66%
Rainfall 0.04 in
Snow Depth Not available.
UV 0 out of 12
Pollen .10 out of 12
Air Quality Not available.
Flu Activity Not available.
METAR KMSS 290353Z AUTO 24008KT 10SM FEW055 OVC075 00/M06 A3000 RMK AO2 SLP165 T00001056

More Conditions Fewer Conditions

Pressure 30.02 in
Visibility 10.0 miles
Clouds Few 5500 ft
Overcast 7500 ft
Windchill 24 °F
Dew Point 22 °F
Humidity 66%
Rainfall 0.04 in
Snow Depth Not available.
UV 0 out of 12
Pollen .10 out of 12
Air Quality Not available.
Flu Activity Not available.
METAR KMSS 290353Z AUTO 24008KT 10SM FEW055 OVC075 00/M06 A3000 RMK AO2 SLP165 T00001056

More Conditions Fewer Conditions

10-Day Weather Forecast

Almanac

Astronomy

Dec. 28, 2014 Rise Set
Actual Time
Civil Twilight
Nautical Twilight
Astronomical Twilight
Moon
Length of Visible Light
Length of Day
Tomorrow will be .
, % of the Moon is Illuminated

Today's Extremes

State Highs State Lows

Community

WunderPhotos

Upload Photos

1,781,530 photos uploaded!

WunderBlogs® & News

Nearby

Air Quality

  Air Quality AQ Index Pollutant
Not available.

Snow Depth

Station Depth Elevation

Earthquake Activity

City Distance Mag. Time & Date
Minimum magnitude displayed is 2.5.

Coastal Water Temperatures

Place Temperature

Nearby Weather Stations